Time;durP1;ratioP1;P1;durP2;ratioP2;P2;SDS_P1;SDS_P2;PMS_P1;PMS_P2;Temp;Humidity;BMP_temperature;BMP_pressure;BME280_temperature;BME280_humidity;BME280_pressure;Samples;Min_cycle;Max_cycle;Signal;HPM_P1;HPM_P2
2022/07/28 00:00:06;;;;;;;58.63;49.55;;;24.40;48.40;;;;;;4934646;28;87261;-51
2022/07/28 00:02:32;;;;;;;58.60;49.50;;;24.40;48.40;;;;;;4936818;28;86219;-46
2022/07/28 00:04:57;;;;;;;58.47;49.40;;;24.40;48.50;;;;;;4944236;28;86855;-50
2022/07/28 00:07:23;;;;;;;59.60;49.80;;;24.40;48.60;;;;;;4938241;28;87104;-45
2022/07/28 00:09:49;;;;;;;59.00;49.47;;;24.30;48.70;;;;;;4925065;28;87862;-50
2022/07/28 00:12:15;;;;;;;59.05;49.55;;;24.30;48.70;;;;;;4945067;28;91594;-48
2022/07/28 00:14:41;;;;;;;58.67;49.67;;;24.30;48.90;;;;;;4930141;28;87805;-50
2022/07/28 00:17:06;;;;;;;58.58;49.60;;;24.20;48.80;;;;;;4936616;28;90369;-51
2022/07/28 00:19:32;;;;;;;58.90;49.78;;;24.20;49.00;;;;;;4935004;28;86119;-49
2022/07/28 00:21:58;;;;;;;58.58;49.60;;;24.20;49.00;;;;;;4934374;28;85614;-48
2022/07/28 00:24:24;;;;;;;58.80;49.60;;;24.20;49.00;;;;;;4940287;28;89500;-51
2022/07/28 00:26:50;;;;;;;60.63;49.55;;;24.20;49.00;;;;;;4940789;28;90609;-51
2022/07/28 00:29:16;;;;;;;58.83;49.53;;;24.20;49.10;;;;;;4932817;28;85263;-47
2022/07/28 00:31:42;;;;;;;59.08;49.47;;;24.20;49.10;;;;;;4936434;28;86620;-52
2022/07/28 00:34:07;;;;;;;58.97;49.42;;;24.20;49.20;;;;;;4938612;28;87100;-51
2022/07/28 00:36:33;;;;;;;58.55;49.53;;;24.20;49.20;;;;;;4943744;28;85581;-47
2022/07/28 00:38:59;;;;;;;59.45;49.63;;;24.20;49.30;;;;;;4940557;28;86801;-48
2022/07/28 00:41:24;;;;;;;60.58;49.67;;;24.20;49.30;;;;;;4938234;28;86923;-48
2022/07/28 00:43:51;;;;;;;58.22;49.40;;;24.20;49.40;;;;;;4933686;28;87979;-47
2022/07/28 00:46:19;;;;;;;58.45;49.15;;;24.20;49.40;;;;;;4941543;28;86031;-53
2022/07/28 00:48:50;;;;;;;58.45;49.53;;;24.20;49.40;;;;;;4935385;28;86490;-46
2022/07/28 00:51:18;;;;;;;58.80;49.58;;;24.10;49.40;;;;;;4942767;28;85243;-47
2022/07/28 00:53:45;;;;;;;58.65;49.50;;;24.10;49.50;;;;;;4941414;28;86230;-47
2022/07/28 00:56:11;;;;;;;58.10;49.40;;;24.10;49.50;;;;;;4927509;28;86008;-51
2022/07/28 00:58:38;;;;;;;58.58;49.55;;;24.10;49.50;;;;;;4943894;28;85424;-51
2022/07/28 01:01:05;;;;;;;57.92;49.15;;;24.10;49.60;;;;;;4928492;28;85127;-50
2022/07/28 01:03:34;;;;;;;58.83;49.55;;;24.10;49.70;;;;;;4937110;28;90364;-47
2022/07/28 01:06:24;;;;;;;57.88;49.25;;;24.10;49.70;;;;;;4937703;28;85534;-48
2022/07/28 01:09:25;;;;;;;58.13;49.45;;;24.00;49.70;;;;;;4945658;28;90483;-46
2022/07/28 01:12:00;;;;;;;58.08;49.35;;;24.00;49.80;;;;;;4945915;28;86253;-49
2022/07/28 01:14:51;;;;;;;58.55;49.35;;;24.00;49.90;;;;;;4943134;28;85775;-49
2022/07/28 01:17:34;;;;;;;58.45;49.55;;;24.00;50.00;;;;;;4944360;28;86226;-46
2022/07/28 01:20:16;;;;;;;59.38;49.55;;;24.00;50.00;;;;;;4926126;28;89896;-48
2022/07/28 01:23:19;;;;;;;57.55;49.15;;;24.00;50.10;;;;;;4933462;28;85329;-48
2022/07/28 01:26:11;;;;;;;57.72;49.25;;;23.90;50.10;;;;;;4930966;28;86250;-45
2022/07/28 01:28:54;;;;;;;58.15;49.42;;;23.90;50.20;;;;;;4936663;28;86536;-49
2022/07/28 01:31:24;;;;;;;57.67;49.25;;;23.90;50.20;;;;;;4926063;28;86250;-48
2022/07/28 01:34:01;;;;;;;58.85;49.35;;;23.90;50.30;;;;;;4946197;28;89456;-48
2022/07/28 01:36:40;;;;;;;58.13;49.38;;;23.90;50.40;;;;;;4940284;28;86307;-47
2022/07/28 01:39:06;;;;;;;58.35;49.47;;;23.90;50.50;;;;;;4935721;28;86796;-52
2022/07/28 01:41:33;;;;;;;57.97;49.28;;;23.80;50.40;;;;;;4936054;28;87068;-49
2022/07/28 01:44:06;;;;;;;57.40;49.08;;;23.90;50.50;;;;;;4934436;28;87228;-48
2022/07/28 01:46:34;;;;;;;58.45;49.47;;;23.90;50.50;;;;;;4950000;28;87172;-47
2022/07/28 01:49:01;;;;;;;58.20;49.40;;;23.90;50.50;;;;;;4940644;28;86535;-46
2022/07/28 01:51:29;;;;;;;57.60;49.33;;;23.80;50.60;;;;;;4943673;28;91952;-48
2022/07/28 01:53:58;;;;;;;57.80;49.33;;;23.80;50.60;;;;;;4937714;28;92289;-50
2022/07/28 01:56:25;;;;;;;57.65;49.08;;;23.80;50.70;;;;;;4944860;28;89563;-46
2022/07/28 01:58:54;;;;;;;60.10;49.30;;;23.70;50.70;;;;;;4940674;28;91049;-51
2022/07/28 02:01:24;;;;;;;57.95;49.08;;;23.70;50.70;;;;;;4936482;28;92619;-50
2022/07/28 02:03:50;;;;;;;57.90;49.25;;;23.70;50.80;;;;;;4947738;28;85944;-50
2022/07/28 02:06:18;;;;;;;59.17;49.20;;;23.70;50.90;;;;;;4936753;28;86400;-45
2022/07/28 02:08:45;;;;;;;57.83;49.25;;;23.70;50.90;;;;;;4946785;28;85748;-48
2022/07/28 02:13:56;;;;;;;57.65;49.15;;;23.70;50.90;;;;;;4945746;28;92149;-46
2022/07/28 02:16:24;;;;;;;57.95;49.38;;;23.70;50.90;;;;;;4942768;28;86938;-50
2022/07/28 02:18:52;;;;;;;57.72;49.35;;;23.70;51.00;;;;;;4943246;28;88416;-45
2022/07/28 02:21:20;;;;;;;57.40;49.22;;;23.70;51.00;;;;;;4940784;28;86636;-47
2022/07/28 02:23:47;;;;;;;57.85;49.15;;;23.70;51.00;;;;;;4940670;28;88809;-45
2022/07/28 02:26:15;;;;;;;58.42;49.15;;;23.60;51.00;;;;;;4940500;28;86343;-52
2022/07/28 02:28:42;;;;;;;57.13;49.03;;;23.70;51.10;;;;;;4943491;28;85967;-49
2022/07/28 02:31:30;;;;;;;58.35;49.40;;;23.70;51.00;;;;;;4933468;28;86358;-50
2022/07/28 02:34:01;;;;;;;58.00;49.35;;;23.70;51.00;;;;;;4944334;28;87558;-52
2022/07/28 02:36:40;;;;;;;56.83;48.90;;;23.60;51.10;;;;;;4935341;28;86318;-49
2022/07/28 02:39:20;;;;;;;57.65;49.17;;;23.60;51.00;;;;;;4947968;28;87745;-48
2022/07/28 02:41:50;;;;;;;57.65;49.22;;;23.60;51.20;;;;;;4944640;28;86970;-50
2022/07/28 02:44:20;;;;;;;58.40;49.05;;;23.60;51.10;;;;;;4940735;28;85912;-48
2022/07/28 02:46:50;;;;;;;57.20;49.10;;;23.60;51.20;;;;;;4940815;28;88996;-47
2022/07/28 02:49:20;;;;;;;57.42;49.08;;;23.50;51.20;;;;;;4934767;28;91310;-49
2022/07/28 02:51:48;;;;;;;58.67;49.40;;;23.60;51.20;;;;;;4934296;28;89227;-47
2022/07/28 02:54:16;;;;;;;58.30;49.20;;;23.60;51.20;;;;;;4945571;28;85208;-46
2022/07/28 02:56:45;;;;;;;57.55;49.20;;;23.60;51.30;;;;;;4932887;28;90233;-51
2022/07/28 02:59:11;;;;;;;57.95;49.40;;;23.50;51.30;;;;;;4938881;28;92196;-49
2022/07/28 03:01:37;;;;;;;57.35;49.15;;;23.50;51.30;;;;;;4931130;28;88483;-47
2022/07/28 03:04:03;;;;;;;57.30;49.05;;;23.50;51.40;;;;;;4945104;28;85597;-48
2022/07/28 03:06:29;;;;;;;57.22;49.22;;;23.50;51.40;;;;;;4940560;28;88044;-48
2022/07/28 03:08:56;;;;;;;58.15;49.20;;;23.50;51.40;;;;;;4933758;28;89292;-45
2022/07/28 03:11:21;;;;;;;57.03;49.03;;;23.50;51.40;;;;;;4938731;28;88313;-48
2022/07/28 03:13:47;;;;;;;58.83;49.13;;;23.40;51.50;;;;;;4950780;28;85416;-48
2022/07/28 03:16:13;;;;;;;57.20;49.05;;;23.40;51.60;;;;;;4948258;28;86924;-47
2022/07/28 03:18:39;;;;;;;57.28;49.15;;;23.40;51.60;;;;;;4931678;28;89454;-50
2022/07/28 03:21:04;;;;;;;57.13;49.03;;;23.40;51.60;;;;;;4940824;28;87297;-51
2022/07/28 03:23:41;;;;;;;57.65;48.95;;;23.40;51.70;;;;;;4937787;28;87564;-53
2022/07/28 03:26:22;;;;;;;57.17;49.05;;;23.40;51.70;;;;;;4933600;28;92773;-50
2022/07/28 03:28:51;;;;;;;57.50;49.10;;;23.40;51.70;;;;;;4929537;28;85892;-53
2022/07/28 03:31:18;;;;;;;57.65;49.08;;;23.40;51.70;;;;;;4940985;28;90093;-48
2022/07/28 03:33:45;;;;;;;57.08;49.03;;;23.40;51.70;;;;;;4943051;28;89301;-48
2022/07/28 03:36:15;;;;;;;56.83;48.97;;;23.30;51.80;;;;;;4937544;28;87465;-49
2022/07/28 03:38:58;;;;;;;56.97;48.87;;;23.30;51.70;;;;;;4950666;28;86279;-49
2022/07/28 03:41:25;;;;;;;57.13;49.08;;;23.30;51.90;;;;;;4930482;28;88194;-47
2022/07/28 03:43:52;;;;;;;57.42;48.95;;;23.30;51.90;;;;;;4942363;28;86170;-47
2022/07/28 03:46:20;;;;;;;58.03;49.22;;;23.30;51.90;;;;;;4937193;28;86579;-50
2022/07/28 03:48:46;;;;;;;57.20;48.75;;;23.30;52.00;;;;;;4935954;28;86038;-45
2022/07/28 03:51:12;;;;;;;57.33;48.97;;;23.20;52.00;;;;;;4933586;28;86047;-50
2022/07/28 03:53:39;;;;;;;57.85;48.85;;;23.20;52.00;;;;;;4930154;28;86835;-48
2022/07/28 03:56:05;;;;;;;57.00;49.03;;;23.20;52.00;;;;;;4929486;28;87757;-47
2022/07/28 03:58:31;;;;;;;56.78;49.05;;;23.20;52.10;;;;;;4941365;28;85532;-53
2022/07/28 04:00:57;;;;;;;57.15;48.95;;;23.20;52.20;;;;;;4948560;28;85616;-47
2022/07/28 04:03:23;;;;;;;57.03;49.10;;;23.20;52.10;;;;;;4926587;28;86075;-49
2022/07/28 04:05:49;;;;;;;58.15;49.13;;;23.10;52.10;;;;;;4945113;28;86658;-52
2022/07/28 04:08:15;;;;;;;56.88;48.72;;;23.10;52.20;;;;;;4943296;28;85974;-45
2022/07/28 04:10:41;;;;;;;57.00;48.80;;;23.10;52.20;;;;;;4935635;28;86857;-49
2022/07/28 04:13:06;;;;;;;57.67;48.97;;;23.10;52.30;;;;;;4925527;28;88890;-48
2022/07/28 04:15:32;;;;;;;56.95;49.05;;;23.10;52.20;;;;;;4935160;28;85814;-45
2022/07/28 04:17:59;;;;;;;58.20;49.17;;;23.10;52.20;;;;;;4932750;28;86563;-49
2022/07/28 04:20:26;;;;;;;56.42;48.67;;;23.10;52.30;;;;;;4936875;28;87401;-52
2022/07/28 04:22:53;;;;;;;57.70;49.03;;;23.10;52.30;;;;;;4923937;28;87518;-47
2022/07/28 04:25:21;;;;;;;57.00;49.03;;;23.10;52.40;;;;;;4941652;28;87452;-48
2022/07/28 04:27:47;;;;;;;57.35;49.03;;;23.00;52.40;;;;;;4924209;28;89341;-51
2022/07/28 04:30:16;;;;;;;57.35;48.92;;;23.00;52.40;;;;;;4929674;28;86219;-47
2022/07/28 04:32:46;;;;;;;57.55;49.13;;;23.10;52.40;;;;;;4943505;28;85372;-48
2022/07/28 04:35:12;;;;;;;56.57;48.83;;;23.10;52.40;;;;;;4947237;28;87020;-50
2022/07/28 04:37:38;;;;;;;56.85;48.85;;;23.10;52.40;;;;;;4937476;28;86269;-51
2022/07/28 04:40:06;;;;;;;57.65;48.92;;;23.10;52.40;;;;;;4928644;28;86577;-48
2022/07/28 04:42:32;;;;;;;58.47;49.05;;;23.10;52.30;;;;;;4928281;28;86589;-48
2022/07/28 04:44:58;;;;;;;58.03;49.03;;;23.10;52.30;;;;;;4942997;28;87493;-47
2022/07/28 04:47:24;;;;;;;57.40;48.90;;;23.10;52.40;;;;;;4945273;28;87971;-52
2022/07/28 04:49:50;;;;;;;56.78;49.05;;;23.10;52.30;;;;;;4927193;28;91427;-50
2022/07/28 04:52:16;;;;;;;57.10;49.03;;;23.10;52.30;;;;;;4935597;28;90720;-46
2022/07/28 04:54:41;;;;;;;56.90;48.63;;;23.10;52.30;;;;;;4930912;28;86964;-45
2022/07/28 04:57:09;;;;;;;57.28;49.17;;;23.10;52.30;;;;;;4940190;28;85606;-50
2022/07/28 04:59:35;;;;;;;56.88;48.92;;;23.20;52.30;;;;;;4938590;28;88495;-47
2022/07/28 05:02:01;;;;;;;57.03;49.13;;;23.20;52.20;;;;;;4938935;28;85815;-49
2022/07/28 05:04:27;;;;;;;56.92;48.97;;;23.20;52.10;;;;;;4925866;28;93397;-46
2022/07/28 05:06:52;;;;;;;56.95;49.10;;;23.20;52.20;;;;;;4933124;28;85834;-48
2022/07/28 05:09:18;;;;;;;57.42;49.17;;;23.10;52.10;;;;;;4915730;28;86655;-51
2022/07/28 05:11:44;;;;;;;58.17;49.22;;;23.20;52.00;;;;;;4929173;28;86357;-45
2022/07/28 05:14:09;;;;;;;56.78;48.95;;;23.30;52.00;;;;;;4926068;28;91959;-48
2022/07/28 05:16:36;;;;;;;56.85;48.92;;;23.30;52.60;;;;;;4942116;28;86485;-48
2022/07/28 05:19:02;;;;;;;57.30;49.22;;;23.30;51.90;;;;;;4925960;28;87898;-50
2022/07/28 05:21:27;;;;;;;57.13;49.03;;;23.30;51.80;;;;;;4941125;28;88570;-50
2022/07/28 05:23:53;;;;;;;56.85;48.97;;;23.30;51.70;;;;;;4938903;28;87897;-47
2022/07/28 05:26:19;;;;;;;57.25;49.00;;;23.30;51.80;;;;;;4929608;28;85782;-50
2022/07/28 05:28:44;;;;;;;56.95;49.00;;;23.30;51.80;;;;;;4938042;28;89216;-50
2022/07/28 05:31:10;;;;;;;58.38;49.22;;;23.30;51.70;;;;;;4943942;28;89913;-49
2022/07/28 05:33:36;;;;;;;58.05;49.25;;;23.30;51.70;;;;;;4936163;28;88473;-51
2022/07/28 05:36:02;;;;;;;57.38;48.97;;;23.40;51.80;;;;;;4944984;28;90920;-50
2022/07/28 05:38:30;;;;;;;58.38;49.22;;;23.40;51.80;;;;;;4944951;28;86762;-47
2022/07/28 05:40:56;;;;;;;57.97;49.50;;;23.40;51.70;;;;;;4936376;28;84719;-47
2022/07/28 05:43:21;;;;;;;57.38;49.25;;;23.40;51.60;;;;;;4935060;28;90169;-46
2022/07/28 05:45:47;;;;;;;58.05;49.45;;;23.40;51.60;;;;;;4942496;28;94118;-51
2022/07/28 05:48:17;;;;;;;58.45;49.42;;;23.40;51.50;;;;;;4919840;28;85813;-51
2022/07/28 05:50:43;;;;;;;57.38;49.03;;;23.40;51.60;;;;;;4917025;28;88966;-49
2022/07/28 05:53:09;;;;;;;58.10;49.17;;;23.40;51.50;;;;;;4945087;28;87449;-48
2022/07/28 05:55:34;;;;;;;57.25;49.22;;;23.40;51.50;;;;;;4941923;28;87813;-47
2022/07/28 05:58:00;;;;;;;57.90;49.22;;;23.40;51.50;;;;;;4927436;28;88613;-50
2022/07/28 06:00:26;;;;;;;57.08;49.08;;;23.40;51.40;;;;;;4924571;28;85133;-45
2022/07/28 06:02:52;;;;;;;57.42;49.05;;;23.40;51.30;;;;;;4928749;28;87005;-48
2022/07/28 06:05:22;;;;;;;58.15;49.30;;;23.40;51.30;;;;;;4928073;28;87469;-52
2022/07/28 06:07:49;;;;;;;58.50;49.17;;;23.50;51.30;;;;;;4943357;28;91637;-49
2022/07/28 06:10:18;;;;;;;57.72;49.13;;;23.50;51.30;;;;;;4938515;28;91216;-51
2022/07/28 06:12:55;;;;;;;57.72;49.13;;;23.40;51.20;;;;;;4934715;28;85750;-46
2022/07/28 06:15:25;;;;;;;58.00;48.95;;;23.50;51.30;;;;;;4917985;28;86298;-48
2022/07/28 06:17:54;;;;;;;57.97;49.05;;;23.50;51.30;;;;;;4926418;28;85626;-49
2022/07/28 06:20:21;;;;;;;57.45;49.17;;;23.40;51.30;;;;;;4921792;28;88294;-45
2022/07/28 06:22:52;;;;;;;57.67;49.13;;;23.40;51.30;;;;;;4937660;28;87735;-45
2022/07/28 06:25:26;;;;;;;57.55;49.15;;;23.40;51.30;;;;;;4945055;28;86106;-49
2022/07/28 06:27:55;;;;;;;57.53;49.05;;;23.40;51.40;;;;;;4943742;28;88089;-46
2022/07/28 06:30:22;;;;;;;57.75;49.10;;;23.40;51.40;;;;;;4929863;28;87494;-50
2022/07/28 06:32:48;;;;;;;60.15;49.53;;;23.40;51.30;;;;;;4937555;28;94505;-44
2022/07/28 06:35:15;;;;;;;61.92;49.55;;;23.40;51.10;;;;;;4924739;28;86736;-47
2022/07/28 06:37:45;;;;;;;65.43;50.03;;;23.40;49.60;;;;;;4922054;28;86811;-45
2022/07/28 06:40:12;;;;;;;59.65;49.58;;;23.20;48.80;;;;;;4931739;28;86781;-41
2022/07/28 06:42:38;;;;;;;62.33;49.88;;;23.10;48.60;;;;;;4932313;28;86146;-46
2022/07/28 06:45:05;;;;;;;61.03;49.97;;;23.00;48.90;;;;;;4931692;28;86291;-45
2022/07/28 06:47:31;;;;;;;66.82;50.15;;;23.00;48.80;;;;;;4913555;28;94603;-43
2022/07/28 06:49:57;;;;;;;66.57;50.28;;;23.10;49.00;;;;;;4934665;28;86914;-45
2022/07/28 06:52:23;;;;;;;62.83;49.97;;;23.10;48.60;;;;;;4934286;28;86133;-44
2022/07/28 06:54:50;;;;;;;61.40;49.97;;;23.00;48.70;;;;;;4936856;28;86863;-43
2022/07/28 06:57:17;;;;;;;61.47;50.08;;;22.90;48.40;;;;;;4932899;28;87107;-41
2022/07/28 06:59:45;;;;;;;62.40;50.13;;;22.70;48.70;;;;;;4919941;28;87556;-43
2022/07/28 07:02:11;;;;;;;61.08;49.80;;;22.70;48.50;;;;;;4923856;28;90204;-45
2022/07/28 07:04:36;;;;;;;62.30;49.92;;;22.70;48.30;;;;;;4936801;28;85929;-41
2022/07/28 07:07:02;;;;;;;60.40;49.90;;;22.70;48.30;;;;;;4929685;28;88922;-45
2022/07/28 07:09:28;;;;;;;62.58;50.03;;;22.90;48.20;;;;;;4916393;28;85715;-44
2022/07/28 07:11:54;;;;;;;62.13;50.15;;;22.90;47.60;;;;;;4927719;28;96527;-44
2022/07/28 07:14:20;;;;;;;63.45;49.97;;;23.00;47.70;;;;;;4928636;28;89628;-46
2022/07/28 07:16:45;;;;;;;61.33;50.30;;;23.00;47.40;;;;;;4925174;28;88384;-49
2022/07/28 07:19:11;;;;;;;63.88;50.03;;;23.10;47.20;;;;;;4914378;28;92068;-44
2022/07/28 07:21:36;;;;;;;69.68;50.20;;;23.00;47.60;;;;;;4917178;28;91553;-50
2022/07/28 07:24:02;;;;;;;60.83;50.13;;;23.00;47.40;;;;;;4950272;28;88330;-48
2022/07/28 07:26:28;;;;;;;61.47;49.83;;;23.00;47.50;;;;;;4918088;28;89642;-46
2022/07/28 07:28:54;;;;;;;61.03;50.15;;;23.00;47.60;;;;;;4934830;28;88428;-47
2022/07/28 07:31:19;;;;;;;60.08;50.00;;;22.90;47.50;;;;;;4929371;28;88229;-51
2022/07/28 07:33:45;;;;;;;60.67;50.00;;;23.00;47.40;;;;;;4922967;28;87214;-45
2022/07/28 07:36:10;;;;;;;60.38;50.28;;;22.90;47.40;;;;;;4912039;28;91537;-49
2022/07/28 07:38:38;;;;;;;62.00;50.08;;;23.00;47.40;;;;;;4920468;28;85590;-44
2022/07/28 07:41:04;;;;;;;63.55;50.15;;;23.10;47.30;;;;;;4928372;28;88305;-46
2022/07/28 07:43:29;;;;;;;59.97;49.90;;;23.10;47.20;;;;;;4936061;28;86281;-43
2022/07/28 07:45:55;;;;;;;61.00;49.97;;;23.00;47.10;;;;;;4947679;28;87251;-46
2022/07/28 07:48:21;;;;;;;60.53;49.95;;;23.00;46.70;;;;;;4927925;28;86917;-47
2022/07/28 07:50:46;;;;;;;60.20;49.85;;;23.10;47.50;;;;;;4920148;28;87712;-45
2022/07/28 07:53:12;;;;;;;60.17;50.03;;;23.10;47.20;;;;;;4939552;28;88890;-47
2022/07/28 07:55:38;;;;;;;63.38;49.95;;;23.10;47.20;;;;;;4928917;28;87701;-45
2022/07/28 07:58:04;;;;;;;60.03;49.97;;;23.10;47.00;;;;;;4939767;28;86983;-43
2022/07/28 08:00:30;;;;;;;60.88;49.75;;;23.10;46.70;;;;;;4930208;28;86817;-45
2022/07/28 08:02:57;;;;;;;66.63;50.20;;;23.20;47.40;;;;;;4934017;28;86970;-47
2022/07/28 08:05:23;;;;;;;61.72;49.97;;;23.10;47.00;;;;;;4934187;28;86812;-46
2022/07/28 08:07:49;;;;;;;61.05;50.03;;;23.20;46.70;;;;;;4936292;28;90412;-43
2022/07/28 08:10:15;;;;;;;63.92;50.15;;;23.20;46.30;;;;;;4932316;28;86411;-50
2022/07/28 08:12:40;;;;;;;66.28;50.13;;;23.30;46.80;;;;;;4934584;28;90325;-47
2022/07/28 08:15:07;;;;;;;60.60;50.00;;;23.30;47.20;;;;;;4920275;28;87750;-43
2022/07/28 08:17:33;;;;;;;64.05;49.97;;;23.30;46.70;;;;;;4933556;28;86598;-46
2022/07/28 08:19:58;;;;;;;59.88;50.15;;;23.30;46.60;;;;;;4929937;28;87996;-46
2022/07/28 08:22:24;;;;;;;60.40;49.78;;;23.40;46.30;;;;;;4929698;28;90349;-48
2022/07/28 08:24:50;;;;;;;62.50;50.28;;;23.40;45.90;;;;;;4942014;28;90409;-50
2022/07/28 08:27:16;;;;;;;61.38;50.10;;;23.50;45.60;;;;;;4924469;28;85666;-51
2022/07/28 08:29:42;;;;;;;63.75;50.15;;;23.50;45.30;;;;;;4923522;28;88145;-48
2022/07/28 08:32:08;;;;;;;63.17;50.20;;;23.60;45.90;;;;;;4921628;28;86077;-47
2022/07/28 08:34:34;;;;;;;61.72;50.30;;;23.60;45.90;;;;;;4933992;28;89854;-46
2022/07/28 08:37:04;;;;;;;61.72;50.28;;;23.60;45.80;;;;;;4927272;28;90527;-46
2022/07/28 08:39:31;;;;;;;62.80;50.20;;;23.60;45.60;;;;;;4935472;28;91718;-44
2022/07/28 08:42:05;;;;;;;61.20;50.13;;;23.50;44.70;;;;;;4941382;28;85705;-42
2022/07/28 08:44:46;;;;;;;60.85;50.28;;;23.60;44.80;;;;;;4936718;28;85769;-42
2022/07/28 08:47:12;;;;;;;61.17;49.90;;;23.60;44.80;;;;;;4937257;28;86985;-44
2022/07/28 08:49:41;;;;;;;61.55;50.22;;;23.60;44.70;;;;;;4944746;28;86862;-46
2022/07/28 08:52:10;;;;;;;64.32;50.33;;;23.60;44.50;;;;;;4928032;28;86880;-47
2022/07/28 08:54:37;;;;;;;60.97;50.60;;;23.70;44.60;;;;;;4937439;28;85506;-47
2022/07/28 08:57:03;;;;;;;60.65;50.00;;;23.70;44.70;;;;;;4945288;28;85908;-54
2022/07/28 08:59:30;;;;;;;62.30;50.25;;;23.70;44.70;;;;;;4930103;28;88227;-48
2022/07/28 09:01:56;;;;;;;61.28;50.42;;;23.70;44.90;;;;;;4924426;28;90184;-48
2022/07/28 09:04:22;;;;;;;61.92;50.28;;;23.70;45.20;;;;;;4918192;28;87436;-47
2022/07/28 09:06:48;;;;;;;62.22;50.22;;;23.70;45.90;;;;;;4932646;28;85270;-52
2022/07/28 09:09:14;;;;;;;61.03;50.08;;;23.70;45.00;;;;;;4919040;28;90045;-50
2022/07/28 09:11:40;;;;;;;65.00;50.42;;;23.70;45.70;;;;;;4911661;28;87483;-48
2022/07/28 09:14:05;;;;;;;61.55;50.22;;;23.70;45.30;;;;;;4944197;28;87134;-48
2022/07/28 09:16:32;;;;;;;61.35;50.22;;;23.70;45.50;;;;;;4932887;28;85813;-52
2022/07/28 09:18:57;;;;;;;60.83;50.40;;;23.70;45.40;;;;;;4928569;28;85701;-45
2022/07/28 09:21:23;;;;;;;63.00;50.45;;;23.70;45.50;;;;;;4937478;28;86618;-44
2022/07/28 09:23:49;;;;;;;64.22;50.35;;;23.80;45.50;;;;;;4910426;28;87278;-50
2022/07/28 09:26:16;;;;;;;62.45;50.65;;;23.80;45.60;;;;;;4926805;28;85943;-45
2022/07/28 09:28:55;;;;;;;62.60;50.53;;;23.90;45.30;;;;;;4928204;28;86346;-46
2022/07/28 09:31:23;;;;;;;61.63;50.63;;;23.90;45.10;;;;;;4921474;28;87205;-47
2022/07/28 09:33:55;;;;;;;61.00;50.17;;;23.90;45.70;;;;;;4928357;28;90223;-50
2022/07/28 09:36:21;;;;;;;60.72;50.42;;;24.00;45.50;;;;;;4918551;28;86111;-51
2022/07/28 09:38:47;;;;;;;65.22;50.40;;;23.90;45.10;;;;;;4927192;28;89997;-53
2022/07/28 09:41:17;;;;;;;63.47;50.35;;;24.00;45.00;;;;;;4937013;28;88195;-46
2022/07/28 09:43:44;;;;;;;63.65;50.33;;;23.90;45.10;;;;;;4946294;28;85655;-47
2022/07/28 09:46:09;;;;;;;63.08;50.42;;;23.90;45.10;;;;;;4929905;28;86129;-49
2022/07/28 09:48:48;;;;;;;63.85;50.55;;;23.90;44.90;;;;;;4939521;28;85796;-46
2022/07/28 09:51:16;;;;;;;62.72;50.50;;;23.90;44.80;;;;;;4919703;28;86149;-51
2022/07/28 09:53:42;;;;;;;61.15;50.13;;;24.00;45.40;;;;;;4942827;28;88856;-49
2022/07/28 09:56:08;;;;;;;60.83;50.42;;;24.00;45.10;;;;;;4939797;28;85618;-47
2022/07/28 09:58:35;;;;;;;61.67;50.50;;;24.00;45.20;;;;;;4933344;28;85973;-45
2022/07/28 10:01:06;;;;;;;61.22;50.25;;;24.00;45.10;;;;;;4927812;28;86022;-51
2022/07/28 10:03:32;;;;;;;;;;;24.00;45.10;;;;;;4922242;28;87946;-48
2022/07/28 10:05:58;;;;;;;62.22;50.50;;;23.90;44.80;;;;;;4937539;28;85557;-51
2022/07/28 10:08:40;;;;;;;63.10;50.65;;;24.00;44.90;;;;;;4928876;28;87420;-47
2022/07/28 10:11:06;;;;;;;65.32;50.67;;;24.00;44.50;;;;;;4940365;28;86375;-48
2022/07/28 10:13:32;;;;;;;61.22;50.80;;;24.00;45.00;;;;;;4942381;28;85902;-58
2022/07/28 10:16:10;;;;;;;63.22;50.58;;;24.10;44.80;;;;;;4948138;28;85686;-52
2022/07/28 10:18:41;;;;;;;61.40;50.45;;;24.10;45.30;;;;;;4936181;28;86249;-53
2022/07/28 10:21:08;;;;;;;61.08;50.65;;;24.20;44.30;;;;;;4944457;28;87753;-50
2022/07/28 10:23:41;;;;;;;62.03;50.50;;;24.20;44.20;;;;;;4943249;28;86380;-52
2022/07/28 10:26:10;;;;;;;62.33;50.55;;;24.20;44.80;;;;;;4943499;28;90273;-50
2022/07/28 10:28:38;;;;;;;62.92;50.85;;;24.10;44.40;;;;;;4946488;28;86740;-51
2022/07/28 10:31:12;;;;;;;62.10;50.63;;;24.20;44.80;;;;;;4945931;28;86058;-51
2022/07/28 10:33:45;;;;;;;61.95;50.83;;;24.20;44.60;;;;;;4931278;28;88006;-50
2022/07/28 10:36:13;;;;;;;63.60;50.60;;;24.20;44.50;;;;;;4947045;28;85959;-53
2022/07/28 10:38:39;;;;;;;70.25;51.10;;;24.30;44.20;;;;;;4934833;28;85854;-50
2022/07/28 10:41:07;;;;;;;66.35;50.95;;;24.40;44.30;;;;;;4927348;28;91388;-53
2022/07/28 10:43:34;;;;;;;62.03;50.80;;;24.40;44.50;;;;;;4935154;28;87185;-50
2022/07/28 10:46:02;;;;;;;62.97;50.70;;;24.40;44.30;;;;;;4931309;28;86260;-47
2022/07/28 10:48:29;;;;;;;62.17;50.88;;;24.40;44.20;;;;;;4936187;28;87405;-50
2022/07/28 10:50:56;;;;;;;65.70;50.88;;;24.40;44.10;;;;;;4929738;28;86738;-53
2022/07/28 10:53:49;;;;;;;62.97;50.85;;;24.50;44.10;;;;;;4935211;28;86933;-46
2022/07/28 10:56:21;;;;;;;61.72;50.67;;;24.60;43.70;;;;;;4935047;28;86063;-49
2022/07/28 10:59:03;;;;;;;66.82;51.05;;;24.60;43.50;;;;;;4912341;28;86347;-52
2022/07/28 11:01:37;;;;;;;63.15;50.95;;;24.70;44.20;;;;;;4921653;28;89525;-49
2022/07/28 11:04:04;;;;;;;62.78;50.70;;;24.70;43.60;;;;;;4908317;28;86217;-43
2022/07/28 11:06:33;;;;;;;62.78;50.97;;;24.70;43.70;;;;;;4921816;28;88768;-43
2022/07/28 11:09:14;;;;;;;62.28;50.92;;;24.80;43.20;;;;;;4933510;28;90196;-47
2022/07/28 11:11:50;;;;;;;65.00;50.60;;;24.90;43.10;;;;;;4925873;28;91525;-50
2022/07/28 11:14:21;;;;;;;62.53;50.95;;;25.00;43.10;;;;;;4932661;28;85726;-50
2022/07/28 11:16:48;;;;;;;62.30;50.80;;;25.00;43.20;;;;;;4919573;28;85098;-46
2022/07/28 11:19:17;;;;;;;63.90;50.75;;;25.00;43.00;;;;;;4921881;28;87304;-47
2022/07/28 11:22:14;;;;;;;63.97;50.88;;;25.10;43.10;;;;;;4928214;28;85756;-49
2022/07/28 11:25:01;;;;;;;62.25;51.15;;;25.00;43.30;;;;;;4911831;28;87723;-46
2022/07/28 11:27:41;;;;;;;62.30;50.88;;;25.10;43.20;;;;;;4927353;28;86269;-45
2022/07/28 11:30:12;;;;;;;64.38;51.13;;;25.10;43.50;;;;;;4931446;28;86245;-44
2022/07/28 11:32:50;;;;;;;64.43;51.03;;;25.20;43.50;;;;;;4939009;28;89925;-45
2022/07/28 11:35:17;;;;;;;65.35;51.53;;;25.10;43.30;;;;;;4916942;28;88121;-46
2022/07/28 11:38:01;;;;;;;62.80;51.05;;;25.10;43.50;;;;;;4934901;28;85574;-44
2022/07/28 11:40:31;;;;;;;66.22;51.35;;;25.20;43.70;;;;;;4926301;28;90636;-51
2022/07/28 11:43:15;;;;;;;64.93;50.67;;;25.20;43.30;;;;;;4935541;28;87205;-46
2022/07/28 11:45:41;;;;;;;63.80;51.03;;;25.30;43.20;;;;;;4924886;28;86068;-51
2022/07/28 11:48:20;;;;;;;63.90;51.20;;;25.30;42.90;;;;;;4916773;28;85577;-46
2022/07/28 11:51:04;;;;;;;65.40;51.40;;;25.30;42.90;;;;;;4912761;28;91732;-45
2022/07/28 11:53:46;;;;;;;64.63;51.58;;;25.30;43.60;;;;;;4921593;28;89636;-48
2022/07/28 11:56:13;;;;;;;64.53;51.47;;;25.30;44.00;;;;;;4927761;28;87060;-49
2022/07/28 11:58:40;;;;;;;62.78;51.50;;;25.30;44.20;;;;;;4935167;28;85273;-45
2022/07/28 12:01:17;;;;;;;68.03;51.63;;;25.30;44.30;;;;;;4931675;28;86270;-46
2022/07/28 12:03:45;;;;;;;64.90;51.65;;;25.30;44.30;;;;;;4924779;28;91019;-47
2022/07/28 12:06:12;;;;;;;67.07;51.50;;;25.40;44.20;;;;;;4929024;28;88722;-54
2022/07/28 12:08:56;;;;;;;64.72;51.20;;;25.40;43.70;;;;;;4939374;28;86093;-47
2022/07/28 12:11:24;;;;;;;63.28;51.22;;;25.40;43.30;;;;;;4936168;28;87825;-47
2022/07/28 12:14:21;;;;;;;63.20;51.63;;;25.40;43.60;;;;;;4927890;28;91683;-50
2022/07/28 12:16:49;;;;;;;66.38;51.42;;;25.40;44.20;;;;;;4932972;28;87358;-49
2022/07/28 12:19:17;;;;;;;64.68;51.35;;;25.40;44.10;;;;;;4895505;28;86787;-44
2022/07/28 12:21:49;;;;;;;64.97;51.33;;;25.40;44.10;;;;;;4927887;28;86540;-48
2022/07/28 12:24:17;;;;;;;62.85;51.10;;;25.50;44.10;;;;;;4935393;28;90777;-54
2022/07/28 12:26:43;;;;;;;63.08;51.35;;;25.50;44.00;;;;;;4934773;28;85304;-53
2022/07/28 12:29:13;;;;;;;62.67;51.22;;;25.50;43.60;;;;;;4931121;28;89364;-44
2022/07/28 12:31:58;;;;;;;62.70;51.27;;;25.50;43.90;;;;;;4938505;28;87934;-44
2022/07/28 12:34:25;;;;;;;63.50;51.67;;;25.40;44.50;;;;;;4936123;28;86018;-51
2022/07/28 12:36:51;;;;;;;66.30;51.90;;;25.40;44.40;;;;;;4924020;28;90818;-48
2022/07/28 12:39:21;;;;;;;64.13;51.40;;;25.50;44.60;;;;;;4933414;28;86371;-46